Site contains unofficial IBTrACS data. Visit the IBTrACS Website to access archived data.

1898 NOT_NAMED (1898315N15123)


IBTrACS version v04r00. Visit IBTrACS website for data access.
Please direct all questions to the IBTrACS Q and A forum

Storm track - Intensity - Wind Radii - Intensity Data - Source Data - All data

Summary Information

Storm ID 1898315N15123
Start Nov 10 16Z
Landfall Nov 12 03Z, Nov 15 15Z
End Nov 17 04Z
ATCF IDs
Track status Best track data.

Storm track plot

Map of storm track

Intensity plots

No Intensity information for this storm


Radial wind information

No radial wind information for this storm


Position and Intensity Table

BASIN ISO_TIME_________ NATURE LAT LON
degrees north degrees east
WP 1898-11-10 16:00:00 NR 14.90 123.40
WP 18:00:00 NR 14.90 123.35
WP 21:00:00 NR 14.91 123.27
WP 1898-11-11 00:00:00 NR 14.94 123.17
WP 03:00:00 NR 14.98 123.05
WP 04:00:00 NR 15.00 123.00
WP 06:00:00 NR 15.05 122.89
WP 09:00:00 NR 15.14 122.70
WP 12:00:00 NR 15.25 122.49
WP 15:00:00 NR 15.36 122.27
WP 16:00:00 NR 15.40 122.20
WP 18:00:00 NR 15.46 122.06
WP 21:00:00 NR 15.55 121.84
WP 1898-11-12 00:00:00 NR 15.64 121.64
WP 03:00:00 NR 15.76 121.45
WP 04:00:00 NR 15.80 121.40
WP 06:00:00 NR 15.90 121.31
WP 09:00:00 NR 16.07 121.20
WP 12:00:00 NR 16.25 121.11
WP 15:00:00 NR 16.44 121.03
WP 16:00:00 NR 16.50 121.00
WP 18:00:00 NR 16.60 120.93
WP 21:00:00 NR 16.76 120.82
WP 1898-11-13 00:00:00 NR 16.93 120.72
WP 03:00:00 NR 17.12 120.63
WP 04:00:00 NR 17.20 120.60
WP 06:00:00 NR 17.37 120.55
WP 09:00:00 NR 17.65 120.49
WP 12:00:00 NR 17.96 120.44
WP 15:00:00 NR 18.29 120.41
WP 16:00:00 NR 18.40 120.40
WP 18:00:00 NR 18.63 120.39
WP 21:00:00 NR 18.97 120.38
WP 1898-11-14 00:00:00 NR 19.31 120.39
WP 03:00:00 NR 19.61 120.40
WP 04:00:00 NR 19.70 120.40
WP 06:00:00 NR 19.85 120.39
WP 09:00:00 NR 20.03 120.39
WP 12:00:00 NR 20.19 120.38
WP 15:00:00 NR 20.35 120.39
WP 16:00:00 NR 20.40 120.40
WP 18:00:00 NR 20.53 120.42
WP 21:00:00 NR 20.73 120.47
WP 1898-11-15 00:00:00 NR 20.93 120.52
WP 03:00:00 NR 21.13 120.58
WP 04:00:00 NR 21.20 120.60
WP 06:00:00 NR 21.34 120.62
WP 09:00:00 NR 21.54 120.66
WP 12:00:00 NR 21.74 120.70
WP 15:00:00 NR 21.94 120.77
WP 16:00:00 NR 22.00 120.80
WP 18:00:00 NR 22.09 120.85
WP 21:00:00 NR 22.23 120.96
WP 1898-11-16 00:00:00 NR 22.38 121.11
WP 03:00:00 NR 22.61 121.32
WP 04:00:00 NR 22.70 121.40
WP 06:00:00 NR 22.95 121.60
WP 09:00:00 NR 23.39 121.95
WP 12:00:00 NR 23.87 122.34
WP 15:00:00 NR 24.35 122.76
WP 16:00:00 NR 24.50 122.90
WP 18:00:00 NR 24.78 123.18
WP 21:00:00 NR 25.15 123.58
WP 1898-11-17 00:00:00 NR 25.49 123.98
WP 03:00:00 NR 25.80 124.37
WP 04:00:00 NR 25.90 124.50

Source Information

Agency Information
USA
TOKYO
CMA
HKO
NEWDELHI
REUNION
BOM
NADI
WELLINGTON
DS824
TD9636 cons_worldwide_trop_cyclone_18710101-19891231-003:Line=1920
TD9635
NEUMANN
MLC

All available IBTrACS Data

SEASON BASIN SUBBASIN ISO_TIME_________ NATURE LAT LON DIST2LAND LANDFALL IFLAG USA SSHS TD9636 LAT TD9636 LON TD9636 STAGE STORM SPEED STORM DIR
Year degrees north degrees east km km 1 degrees north degrees east kts degrees
1898 WP MM 1898-11-10 16:00:00 NR 14.90 123.40 95 95 __________O___ -1 14.90 123.40 3 1 275
1898 WP MM 18:00:00 NR 14.90 123.35 95 89 __________P___ -1 14.90 123.35 3 2 276
1898 WP MM 21:00:00 NR 14.91 123.27 89 84 __________P___ -1 14.91 123.27 3 2 281
1898 WP MM 1898-11-11 00:00:00 NR 14.94 123.17 84 81 __________P___ -1 14.94 123.17 3 2 287
1898 WP MM 03:00:00 NR 14.98 123.05 90 90 __________P___ -1 14.98 123.05 3 3 290
1898 WP MM 04:00:00 NR 15.00 123.00 90 89 __________O___ -1 15.00 123.00 4 3 295
1898 WP MM 06:00:00 NR 15.05 122.89 89 100 __________P___ -1 15.05 122.89 4 4 296
1898 WP MM 09:00:00 NR 15.14 122.70 100 94 __________P___ -1 15.14 122.70 4 4 297
1898 WP MM 12:00:00 NR 15.25 122.49 94 74 __________P___ -1 15.25 122.49 4 5 298
1898 WP MM 15:00:00 NR 15.36 122.27 74 70 __________P___ -1 15.36 122.27 4 5 298
1898 WP MM 16:00:00 NR 15.40 122.20 70 56 __________O___ -1 15.40 122.20 4 5 295
1898 WP MM 18:00:00 NR 15.46 122.06 56 30 __________P___ -1 15.46 122.06 4 5 293
1898 WP MM 21:00:00 NR 15.55 121.84 30 10 __________P___ -1 15.55 121.84 4 4 294
1898 WP MM 1898-11-12 00:00:00 NR 15.64 121.64 10 0 __________P___ -1 15.64 121.64 4 4 299
1898 WP MM 03:00:00 NR 15.76 121.45 0 0 __________P___ -1 15.76 121.45 4 4 305
1898 WP MM 04:00:00 NR 15.80 121.40 0 0 __________O___ -1 15.80 121.40 4 4 316
1898 WP MM 06:00:00 NR 15.90 121.31 0 0 __________P___ -1 15.90 121.31 4 4 325
1898 WP MM 09:00:00 NR 16.07 121.20 0 0 __________P___ -1 16.07 121.20 4 4 331
1898 WP MM 12:00:00 NR 16.25 121.11 0 0 __________P___ -1 16.25 121.11 4 4 335
1898 WP MM 15:00:00 NR 16.44 121.03 0 0 __________P___ -1 16.44 121.03 4 4 337
1898 WP MM 16:00:00 NR 16.50 121.00 0 0 __________O___ -1 16.50 121.00 4 4 329
1898 WP MM 18:00:00 NR 16.60 120.93 0 0 __________P___ -1 16.60 120.93 4 4 326
1898 WP MM 21:00:00 NR 16.76 120.82 0 0 __________P___ -1 16.76 120.82 4 4 328
1898 WP MM 1898-11-13 00:00:00 NR 16.93 120.72 0 0 __________P___ -1 16.93 120.72 4 4 333
1898 WP MM 03:00:00 NR 17.12 120.63 0 0 __________P___ -1 17.12 120.63 4 4 337
1898 WP MM 04:00:00 NR 17.20 120.60 0 0 __________O___ -1 17.20 120.60 4 5 344
1898 WP MM 06:00:00 NR 17.37 120.55 0 0 __________P___ -1 17.37 120.55 4 6 347
1898 WP MM 09:00:00 NR 17.65 120.49 0 0 __________P___ -1 17.65 120.49 4 6 350
1898 WP MM 12:00:00 NR 17.96 120.44 10 10 __________P___ -1 17.96 120.44 4 6 353
1898 WP MM 15:00:00 NR 18.29 120.41 21 21 __________P___ -1 18.29 120.41 4 7 355
1898 WP MM 16:00:00 NR 18.40 120.40 21 21 __________O___ -1 18.40 120.40 4 7 0
1898 WP MM 18:00:00 NR 18.63 120.39 30 30 __________P___ -1 18.63 120.39 4 7 0
1898 WP MM 21:00:00 NR 18.97 120.38 61 61 __________P___ -1 18.97 120.38 4 7 0
1898 WP MM 1898-11-14 00:00:00 NR 19.31 120.39 88 88 __________P___ -1 19.31 120.39 4 6 0
1898 WP MM 03:00:00 NR 19.61 120.40 119 119 __________P___ -1 19.61 120.40 4 6 2
1898 WP MM 04:00:00 NR 19.70 120.40 130 130 __________O___ -1 19.70 120.40 4 5 0
1898 WP MM 06:00:00 NR 19.85 120.39 140 151 __________P___ -1 19.85 120.39 4 4 357
1898 WP MM 09:00:00 NR 20.03 120.39 162 162 __________P___ -1 20.03 120.39 4 3 0
1898 WP MM 12:00:00 NR 20.19 120.38 183 181 __________P___ -1 20.19 120.38 4 3 5
1898 WP MM 15:00:00 NR 20.35 120.39 181 170 __________P___ -1 20.35 120.39 4 3 5
1898 WP MM 16:00:00 NR 20.40 120.40 170 159 __________O___ -1 20.40 120.40 4 4 0
1898 WP MM 18:00:00 NR 20.53 120.42 159 135 __________P___ -1 20.53 120.42 4 4 13
1898 WP MM 21:00:00 NR 20.73 120.47 135 113 __________P___ -1 20.73 120.47 4 4 13
1898 WP MM 1898-11-15 00:00:00 NR 20.93 120.52 113 90 __________P___ -1 20.93 120.52 4 4 15
1898 WP MM 03:00:00 NR 21.13 120.58 90 78 __________P___ -1 21.13 120.58 4 4 13
1898 WP MM 04:00:00 NR 21.20 120.60 78 67 __________O___ -1 21.20 120.60 4 4 13
1898 WP MM 06:00:00 NR 21.34 120.62 67 44 __________P___ -1 21.34 120.62 4 4 10
1898 WP MM 09:00:00 NR 21.54 120.66 44 22 __________P___ -1 21.54 120.66 4 4 10
1898 WP MM 12:00:00 NR 21.74 120.70 22 0 __________P___ -1 21.74 120.70 4 4 15
1898 WP MM 15:00:00 NR 21.94 120.77 0 0 __________P___ -1 21.94 120.77 4 4 19
1898 WP MM 16:00:00 NR 22.00 120.80 0 0 __________O___ -1 22.00 120.80 4 4 28
1898 WP MM 18:00:00 NR 22.09 120.85 0 0 __________P___ -1 22.09 120.85 4 3 33
1898 WP MM 21:00:00 NR 22.23 120.96 10 10 __________P___ -1 22.23 120.96 4 4 39
1898 WP MM 1898-11-16 00:00:00 NR 22.38 121.11 20 20 __________P___ -1 22.38 121.11 4 5 41
1898 WP MM 03:00:00 NR 22.61 121.32 30 30 __________P___ -1 22.61 121.32 4 6 41
1898 WP MM 04:00:00 NR 22.70 121.40 30 23 __________O___ -1 22.70 121.40 4 9 37
1898 WP MM 06:00:00 NR 22.95 121.60 30 23 __________P___ -1 22.95 121.60 4 10 36
1898 WP MM 09:00:00 NR 23.39 121.95 51 55 __________P___ -1 23.39 121.95 4 12 37
1898 WP MM 12:00:00 NR 23.87 122.34 74 75 __________P___ -1 23.87 122.34 4 12 38
1898 WP MM 15:00:00 NR 24.35 122.76 93 91 __________P___ -1 24.35 122.76 4 12 39
1898 WP MM 16:00:00 NR 24.50 122.90 101 101 __________O___ -1 24.50 122.90 4 11 41
1898 WP MM 18:00:00 NR 24.78 123.18 122 122 __________P___ -1 24.78 123.18 4 11 43
1898 WP MM 21:00:00 NR 25.15 123.58 162 162 __________P___ -1 25.15 123.58 4 10 46
1898 WP MM 1898-11-17 00:00:00 NR 25.49 123.98 208 208 __________P___ -1 25.49 123.98 4 10 48
1898 WP MM 03:00:00 NR 25.80 124.37 256 256 __________P___ -1 25.80 124.37 4 9 49
1898 WP MM 04:00:00 NR 25.90 124.50 270 __________O___ -1 25.90 124.50 4 9 50